sensor_id;sensor_type;location;lat;lon;timestamp;temperature;humidity
4431;DHT22;2228;48.140;11.488;2023-07-31T00:01:10;17.10;1.00
4431;DHT22;2228;48.140;11.488;2023-07-31T00:03:37;17.10;1.00
4431;DHT22;2228;48.140;11.488;2023-07-31T00:06:05;16.80;1.00
4431;DHT22;2228;48.140;11.488;2023-07-31T00:08:32;16.80;1.00
4431;DHT22;2228;48.140;11.488;2023-07-31T00:11:02;16.90;1.00
4431;DHT22;2228;48.140;11.488;2023-07-31T00:13:29;16.60;1.00
4431;DHT22;2228;48.140;11.488;2023-07-31T00:15:57;16.40;1.00
4431;DHT22;2228;48.140;11.488;2023-07-31T00:18:28;16.50;1.00
4431;DHT22;2228;48.140;11.488;2023-07-31T00:20:56;16.30;1.00
4431;DHT22;2228;48.140;11.488;2023-07-31T00:23:24;16.20;1.00
4431;DHT22;2228;48.140;11.488;2023-07-31T00:25:51;16.20;1.00
4431;DHT22;2228;48.140;11.488;2023-07-31T00:28:18;16.10;1.00
4431;DHT22;2228;48.140;11.488;2023-07-31T00:30:46;16.10;22.00
4431;DHT22;2228;48.140;11.488;2023-07-31T00:33:14;16.30;1.00
4431;DHT22;2228;48.140;11.488;2023-07-31T00:35:43;16.10;5.60
4431;DHT22;2228;48.140;11.488;2023-07-31T00:38:10;17.10;3.40
4431;DHT22;2228;48.140;11.488;2023-07-31T00:40:37;16.20;17.80
4431;DHT22;2228;48.140;11.488;2023-07-31T00:43:05;16.30;1.00
4431;DHT22;2228;48.140;11.488;2023-07-31T00:45:33;17.40;1.00
4431;DHT22;2228;48.140;11.488;2023-07-31T00:48:01;16.80;1.00
4431;DHT22;2228;48.140;11.488;2023-07-31T17:02:55;22.80;99.90
4431;DHT22;2228;48.140;11.488;2023-07-31T17:05:23;23.00;99.90
4431;DHT22;2228;48.140;11.488;2023-07-31T17:07:50;23.10;99.90
4431;DHT22;2228;48.140;11.488;2023-07-31T17:10:17;23.10;99.90
4431;DHT22;2228;48.140;11.488;2023-07-31T17:12:44;23.00;99.90
4431;DHT22;2228;48.140;11.488;2023-07-31T17:15:10;23.10;99.90
4431;DHT22;2228;48.140;11.488;2023-07-31T17:17:37;23.30;99.90
4431;DHT22;2228;48.140;11.488;2023-07-31T17:20:07;23.40;99.90
4431;DHT22;2228;48.140;11.488;2023-07-31T17:22:34;23.30;99.90
4431;DHT22;2228;48.140;11.488;2023-07-31T17:25:01;23.50;99.90
4431;DHT22;2228;48.140;11.488;2023-07-31T17:27:28;23.50;99.90
4431;DHT22;2228;48.140;11.488;2023-07-31T17:29:55;23.70;99.90
4431;DHT22;2228;48.140;11.488;2023-07-31T17:32:22;23.60;99.90
4431;DHT22;2228;48.140;11.488;2023-07-31T17:34:50;23.60;99.90
4431;DHT22;2228;48.140;11.488;2023-07-31T17:37:18;23.40;99.90
4431;DHT22;2228;48.140;11.488;2023-07-31T17:39:45;23.40;99.90
4431;DHT22;2228;48.140;11.488;2023-07-31T17:42:12;23.40;99.90
4431;DHT22;2228;48.140;11.488;2023-07-31T17:44:39;23.40;99.90
4431;DHT22;2228;48.140;11.488;2023-07-31T17:47:06;23.60;99.90
4431;DHT22;2228;48.140;11.488;2023-07-31T17:49:33;23.60;99.90
4431;DHT22;2228;48.140;11.488;2023-07-31T17:52:01;23.90;99.90
4431;DHT22;2228;48.140;11.488;2023-07-31T17:54:30;23.90;99.90
4431;DHT22;2228;48.140;11.488;2023-07-31T17:56:57;23.90;99.90
4431;DHT22;2228;48.140;11.488;2023-07-31T17:59:24;23.80;99.90
4431;DHT22;2228;48.140;11.488;2023-07-31T18:01:51;23.80;99.90
4431;DHT22;2228;48.140;11.488;2023-07-31T18:04:21;23.80;99.90
4431;DHT22;2228;48.140;11.488;2023-07-31T18:06:48;23.80;99.90
4431;DHT22;2228;48.140;11.488;2023-07-31T18:09:15;23.80;99.90
4431;DHT22;2228;48.140;11.488;2023-07-31T18:11:43;23.60;99.90
4431;DHT22;2228;48.140;11.488;2023-07-31T18:14:10;23.50;99.90
4431;DHT22;2228;48.140;11.488;2023-07-31T18:16:37;23.30;99.90
4431;DHT22;2228;48.140;11.488;2023-07-31T18:19:04;23.30;99.90
4431;DHT22;2228;48.140;11.488;2023-07-31T18:21:31;23.10;99.90
4431;DHT22;2228;48.140;11.488;2023-07-31T18:24:01;23.00;99.90
4431;DHT22;2228;48.140;11.488;2023-07-31T18:26:29;23.00;99.90
4431;DHT22;2228;48.140;11.488;2023-07-31T18:28:57;22.90;99.90
4431;DHT22;2228;48.140;11.488;2023-07-31T18:31:24;22.90;99.90
4431;DHT22;2228;48.140;11.488;2023-07-31T18:33:51;22.80;99.90
4431;DHT22;2228;48.140;11.488;2023-07-31T18:36:18;22.80;99.90
4431;DHT22;2228;48.140;11.488;2023-07-31T18:38:44;22.70;99.90
4431;DHT22;2228;48.140;11.488;2023-07-31T18:41:11;22.70;99.90
4431;DHT22;2228;48.140;11.488;2023-07-31T18:43:38;23.00;99.90
4431;DHT22;2228;48.140;11.488;2023-07-31T18:46:07;22.90;99.90
4431;DHT22;2228;48.140;11.488;2023-07-31T18:48:34;22.50;99.90
4431;DHT22;2228;48.140;11.488;2023-07-31T18:51:01;22.40;99.90
4431;DHT22;2228;48.140;11.488;2023-07-31T18:53:28;22.30;99.90
4431;DHT22;2228;48.140;11.488;2023-07-31T18:55:55;22.20;99.90
4431;DHT22;2228;48.140;11.488;2023-07-31T18:58:22;22.00;99.90
4431;DHT22;2228;48.140;11.488;2023-07-31T19:00:48;21.80;99.90
4431;DHT22;2228;48.140;11.488;2023-07-31T19:03:17;21.70;99.90
4431;DHT22;2228;48.140;11.488;2023-07-31T19:05:44;21.50;99.90
4431;DHT22;2228;48.140;11.488;2023-07-31T19:08:11;21.40;99.90
4431;DHT22;2228;48.140;11.488;2023-07-31T19:10:38;21.30;99.90
4431;DHT22;2228;48.140;11.488;2023-07-31T19:13:05;21.40;99.90
4431;DHT22;2228;48.140;11.488;2023-07-31T19:15:32;21.10;99.90
4431;DHT22;2228;48.140;11.488;2023-07-31T19:17:59;21.20;99.90
4431;DHT22;2228;48.140;11.488;2023-07-31T19:20:29;21.20;99.90
4431;DHT22;2228;48.140;11.488;2023-07-31T19:22:57;21.10;99.90
4431;DHT22;2228;48.140;11.488;2023-07-31T19:25:24;21.10;99.90
4431;DHT22;2228;48.140;11.488;2023-07-31T19:27:51;21.00;99.90
4431;DHT22;2228;48.140;11.488;2023-07-31T19:30:18;21.00;99.90
4431;DHT22;2228;48.140;11.488;2023-07-31T19:32:45;21.00;99.90
4431;DHT22;2228;48.140;11.488;2023-07-31T19:35:12;21.00;99.90
4431;DHT22;2228;48.140;11.488;2023-07-31T19:37:40;21.00;99.90
4431;DHT22;2228;48.140;11.488;2023-07-31T19:40:08;21.00;99.90
4431;DHT22;2228;48.140;11.488;2023-07-31T19:42:35;21.10;99.90
4431;DHT22;2228;48.140;11.488;2023-07-31T19:45:02;21.20;99.90
4431;DHT22;2228;48.140;11.488;2023-07-31T19:47:29;21.10;99.90
4431;DHT22;2228;48.140;11.488;2023-07-31T19:49:56;21.20;99.90
4431;DHT22;2228;48.140;11.488;2023-07-31T19:52:24;21.30;99.90
4431;DHT22;2228;48.140;11.488;2023-07-31T19:54:52;21.30;99.90
4431;DHT22;2228;48.140;11.488;2023-07-31T19:57:19;21.30;99.90
4431;DHT22;2228;48.140;11.488;2023-07-31T19:59:46;21.40;99.90
4431;DHT22;2228;48.140;11.488;2023-07-31T20:02:13;21.50;99.90
4431;DHT22;2228;48.140;11.488;2023-07-31T20:04:40;21.40;99.90
4431;DHT22;2228;48.140;11.488;2023-07-31T20:07:07;21.40;99.90
4431;DHT22;2228;48.140;11.488;2023-07-31T20:09:34;21.40;99.90
4431;DHT22;2228;48.140;11.488;2023-07-31T20:12:03;21.40;99.90
4431;DHT22;2228;48.140;11.488;2023-07-31T20:14:30;21.40;99.90
4431;DHT22;2228;48.140;11.488;2023-07-31T20:16:58;21.50;99.90
4431;DHT22;2228;48.140;11.488;2023-07-31T20:19:25;21.60;99.90
4431;DHT22;2228;48.140;11.488;2023-07-31T20:21:52;21.30;99.90
4431;DHT22;2228;48.140;11.488;2023-07-31T20:24:21;21.10;99.90
4431;DHT22;2228;48.140;11.488;2023-07-31T20:26:47;21.20;99.90
4431;DHT22;2228;48.140;11.488;2023-07-31T20:29:16;21.10;99.90
4431;DHT22;2228;48.140;11.488;2023-07-31T20:31:43;21.10;99.90
4431;DHT22;2228;48.140;11.488;2023-07-31T20:34:10;21.10;99.90
4431;DHT22;2228;48.140;11.488;2023-07-31T20:36:37;21.10;99.90
4431;DHT22;2228;48.140;11.488;2023-07-31T20:39:04;21.10;99.90
4431;DHT22;2228;48.140;11.488;2023-07-31T20:41:33;21.10;99.90
4431;DHT22;2228;48.140;11.488;2023-07-31T20:44:01;21.00;99.90
4431;DHT22;2228;48.140;11.488;2023-07-31T20:46:29;20.90;99.90
4431;DHT22;2228;48.140;11.488;2023-07-31T20:48:56;21.00;99.90
4431;DHT22;2228;48.140;11.488;2023-07-31T20:51:23;21.00;99.90
4431;DHT22;2228;48.140;11.488;2023-07-31T20:53:50;21.00;99.90
4431;DHT22;2228;48.140;11.488;2023-07-31T20:56:17;21.10;99.90
4431;DHT22;2228;48.140;11.488;2023-07-31T20:58:47;21.20;99.90
4431;DHT22;2228;48.140;11.488;2023-07-31T21:01:15;21.20;99.90
4431;DHT22;2228;48.140;11.488;2023-07-31T21:03:44;21.00;99.90
4431;DHT22;2228;48.140;11.488;2023-07-31T21:06:11;20.90;99.90
4431;DHT22;2228;48.140;11.488;2023-07-31T21:08:38;21.00;99.90
4431;DHT22;2228;48.140;11.488;2023-07-31T21:11:05;21.00;99.90
4431;DHT22;2228;48.140;11.488;2023-07-31T21:13:32;21.00;99.90
4431;DHT22;2228;48.140;11.488;2023-07-31T21:16:00;21.10;99.90
4431;DHT22;2228;48.140;11.488;2023-07-31T21:18:28;21.00;99.90
4431;DHT22;2228;48.140;11.488;2023-07-31T21:20:57;21.20;99.90
4431;DHT22;2228;48.140;11.488;2023-07-31T21:23:24;20.90;99.90
4431;DHT22;2228;48.140;11.488;2023-07-31T21:25:51;20.80;99.90
4431;DHT22;2228;48.140;11.488;2023-07-31T21:28:18;20.80;99.90
4431;DHT22;2228;48.140;11.488;2023-07-31T21:30:46;20.70;99.90
4431;DHT22;2228;48.140;11.488;2023-07-31T21:33:13;21.20;99.90
4431;DHT22;2228;48.140;11.488;2023-07-31T21:35:40;20.70;99.90
4431;DHT22;2228;48.140;11.488;2023-07-31T21:38:10;20.50;99.90
4431;DHT22;2228;48.140;11.488;2023-07-31T21:40:39;20.10;99.90
4431;DHT22;2228;48.140;11.488;2023-07-31T21:43:06;19.90;1.00
4431;DHT22;2228;48.140;11.488;2023-07-31T21:45:34;19.80;1.00
4431;DHT22;2228;48.140;11.488;2023-07-31T21:48:01;20.30;1.00
4431;DHT22;2228;48.140;11.488;2023-07-31T21:50:28;19.50;1.00
4431;DHT22;2228;48.140;11.488;2023-07-31T21:52:55;19.40;1.00
4431;DHT22;2228;48.140;11.488;2023-07-31T21:55:24;19.40;1.00
4431;DHT22;2228;48.140;11.488;2023-07-31T21:57:54;19.10;1.00
4431;DHT22;2228;48.140;11.488;2023-07-31T22:00:22;19.20;1.00
4431;DHT22;2228;48.140;11.488;2023-07-31T22:02:49;19.80;1.00
4431;DHT22;2228;48.140;11.488;2023-07-31T22:05:16;19.30;1.00
4431;DHT22;2228;48.140;11.488;2023-07-31T22:07:43;19.40;1.00
4431;DHT22;2228;48.140;11.488;2023-07-31T22:10:14;19.40;1.00
4431;DHT22;2228;48.140;11.488;2023-07-31T22:12:42;19.80;1.00
4431;DHT22;2228;48.140;11.488;2023-07-31T22:15:10;19.60;1.00
4431;DHT22;2228;48.140;11.488;2023-07-31T22:17:39;19.70;1.00
4431;DHT22;2228;48.140;11.488;2023-07-31T22:20:08;19.80;1.00
4431;DHT22;2228;48.140;11.488;2023-07-31T22:22:38;19.80;1.00
4431;DHT22;2228;48.140;11.488;2023-07-31T22:25:07;20.30;1.00
4431;DHT22;2228;48.140;11.488;2023-07-31T22:27:34;20.00;1.00
4431;DHT22;2228;48.140;11.488;2023-07-31T22:30:03;20.10;1.00
4431;DHT22;2228;48.140;11.488;2023-07-31T22:32:30;20.00;1.00
4431;DHT22;2228;48.140;11.488;2023-07-31T22:34:58;20.00;1.00
4431;DHT22;2228;48.140;11.488;2023-07-31T22:37:25;20.20;1.00
4431;DHT22;2228;48.140;11.488;2023-07-31T22:39:52;20.20;1.00
4431;DHT22;2228;48.140;11.488;2023-07-31T22:42:20;20.10;1.00
4431;DHT22;2228;48.140;11.488;2023-07-31T22:44:49;19.80;1.00
4431;DHT22;2228;48.140;11.488;2023-07-31T22:47:21;19.70;1.00
4431;DHT22;2228;48.140;11.488;2023-07-31T22:49:50;19.20;1.00
4431;DHT22;2228;48.140;11.488;2023-07-31T22:52:22;19.10;1.00
4431;DHT22;2228;48.140;11.488;2023-07-31T22:54:51;18.90;1.00
4431;DHT22;2228;48.140;11.488;2023-07-31T22:57:19;18.70;1.00
4431;DHT22;2228;48.140;11.488;2023-07-31T22:59:56;18.40;1.00
4431;DHT22;2228;48.140;11.488;2023-07-31T23:02:43;18.00;1.00
4431;DHT22;2228;48.140;11.488;2023-07-31T23:05:25;18.20;1.00
4431;DHT22;2228;48.140;11.488;2023-07-31T23:07:57;18.10;1.00
4431;DHT22;2228;48.140;11.488;2023-07-31T23:10:27;18.20;1.00
4431;DHT22;2228;48.140;11.488;2023-07-31T23:12:55;18.10;1.00
4431;DHT22;2228;48.140;11.488;2023-07-31T23:15:32;18.10;1.00
4431;DHT22;2228;48.140;11.488;2023-07-31T23:18:01;18.10;1.00
4431;DHT22;2228;48.140;11.488;2023-07-31T23:20:28;18.00;1.00
4431;DHT22;2228;48.140;11.488;2023-07-31T23:22:56;18.00;1.00
4431;DHT22;2228;48.140;11.488;2023-07-31T23:25:23;17.90;7.90
4431;DHT22;2228;48.140;11.488;2023-07-31T23:28:07;18.00;4.60
4431;DHT22;2228;48.140;11.488;2023-07-31T23:30:34;18.00;1.00
4431;DHT22;2228;48.140;11.488;2023-07-31T23:33:03;18.00;26.10
4431;DHT22;2228;48.140;11.488;2023-07-31T23:35:30;18.00;1.00
4431;DHT22;2228;48.140;11.488;2023-07-31T23:37:57;18.00;1.00
4431;DHT22;2228;48.140;11.488;2023-07-31T23:40:25;17.90;1.00
4431;DHT22;2228;48.140;11.488;2023-07-31T23:42:53;17.90;1.00
4431;DHT22;2228;48.140;11.488;2023-07-31T23:45:20;17.90;33.30
4431;DHT22;2228;48.140;11.488;2023-07-31T23:47:48;17.90;12.40
4431;DHT22;2228;48.140;11.488;2023-07-31T23:50:19;17.90;1.00
4431;DHT22;2228;48.140;11.488;2023-07-31T23:52:52;18.10;1.00
